sensor_id;sensor_type;location;lat;lon;timestamp;temperature;humidity
68943;DHT22;60852;52.190;4.422;2023-04-03T00:01:20;5.62;73.13
68943;DHT22;60852;52.190;4.422;2023-04-03T00:03:45;5.61;73.10
68943;DHT22;60852;52.190;4.422;2023-04-03T00:06:11;5.57;72.98
68943;DHT22;60852;52.190;4.422;2023-04-03T00:08:38;5.55;72.88
68943;DHT22;60852;52.190;4.422;2023-04-03T00:11:05;5.58;72.92
68943;DHT22;60852;52.190;4.422;2023-04-03T00:13:31;5.50;72.93
68943;DHT22;60852;52.190;4.422;2023-04-03T00:15:57;5.47;73.00
68943;DHT22;60852;52.190;4.422;2023-04-03T00:18:23;5.44;73.04
68943;DHT22;60852;52.190;4.422;2023-04-03T00:20:49;5.44;73.02
68943;DHT22;60852;52.190;4.422;2023-04-03T00:23:14;5.44;72.98
68943;DHT22;60852;52.190;4.422;2023-04-03T00:25:40;5.50;72.95
68943;DHT22;60852;52.190;4.422;2023-04-03T00:28:05;5.48;72.73
68943;DHT22;60852;52.190;4.422;2023-04-03T00:30:32;5.47;72.61
68943;DHT22;60852;52.190;4.422;2023-04-03T00:32:57;5.47;72.53
68943;DHT22;60852;52.190;4.422;2023-04-03T00:35:23;5.50;72.39
68943;DHT22;60852;52.190;4.422;2023-04-03T00:37:53;5.52;72.35
68943;DHT22;60852;52.190;4.422;2023-04-03T00:40:20;5.51;72.38
68943;DHT22;60852;52.190;4.422;2023-04-03T00:42:48;5.48;72.35
68943;DHT22;60852;52.190;4.422;2023-04-03T00:47:45;5.50;71.98
68943;DHT22;60852;52.190;4.422;2023-04-03T00:50:11;5.48;71.76
68943;DHT22;60852;52.190;4.422;2023-04-03T00:52:37;5.44;71.65
68943;DHT22;60852;52.190;4.422;2023-04-03T00:55:07;5.40;71.54
68943;DHT22;60852;52.190;4.422;2023-04-03T00:57:33;5.41;71.63
68943;DHT22;60852;52.190;4.422;2023-04-03T01:00:11;5.41;71.54
68943;DHT22;60852;52.190;4.422;2023-04-03T01:02:38;5.41;71.37
68943;DHT22;60852;52.190;4.422;2023-04-03T01:05:06;5.38;71.17
68943;DHT22;60852;52.190;4.422;2023-04-03T01:07:32;5.31;71.16
68943;DHT22;60852;52.190;4.422;2023-04-03T01:10:07;5.27;71.15
68943;DHT22;60852;52.190;4.422;2023-04-03T01:12:37;5.27;70.42
68943;DHT22;60852;52.190;4.422;2023-04-03T01:15:08;5.27;70.60
68943;DHT22;60852;52.190;4.422;2023-04-03T01:25:19;5.23;70.08
68943;DHT22;60852;52.190;4.422;2023-04-03T01:27:44;5.23;70.41
68943;DHT22;60852;52.190;4.422;2023-04-03T01:30:11;5.22;70.70
68943;DHT22;60852;52.190;4.422;2023-04-03T01:32:37;5.20;70.67
68943;DHT22;60852;52.190;4.422;2023-04-03T01:35:07;5.16;70.70
68943;DHT22;60852;52.190;4.422;2023-04-03T01:37:32;5.13;70.56
68943;DHT22;60852;52.190;4.422;2023-04-03T01:39:57;5.10;70.07
68943;DHT22;60852;52.190;4.422;2023-04-03T01:42:23;5.05;69.96
68943;DHT22;60852;52.190;4.422;2023-04-03T01:44:48;5.03;69.72
68943;DHT22;60852;52.190;4.422;2023-04-03T01:47:14;5.03;69.49
68943;DHT22;60852;52.190;4.422;2023-04-03T01:49:40;5.01;69.29
68943;DHT22;60852;52.190;4.422;2023-04-03T01:52:05;5.00;69.25
68943;DHT22;60852;52.190;4.422;2023-04-03T01:54:30;4.96;69.02
68943;DHT22;60852;52.190;4.422;2023-04-03T01:56:56;4.95;69.14
68943;DHT22;60852;52.190;4.422;2023-04-03T01:59:21;4.92;69.02
68943;DHT22;60852;52.190;4.422;2023-04-03T02:01:47;4.90;69.12
68943;DHT22;60852;52.190;4.422;2023-04-03T02:04:12;4.87;69.08
68943;DHT22;60852;52.190;4.422;2023-04-03T02:06:38;4.85;69.29
68943;DHT22;60852;52.190;4.422;2023-04-03T02:09:03;4.85;69.03
68943;DHT22;60852;52.190;4.422;2023-04-03T02:11:29;4.80;69.24
68943;DHT22;60852;52.190;4.422;2023-04-03T02:13:55;4.83;69.29
68943;DHT22;60852;52.190;4.422;2023-04-03T02:16:20;4.83;69.34
68943;DHT22;60852;52.190;4.422;2023-04-03T02:18:46;4.82;69.47
68943;DHT22;60852;52.190;4.422;2023-04-03T02:21:11;4.82;69.40
68943;DHT22;60852;52.190;4.422;2023-04-03T02:23:36;4.80;69.36
68943;DHT22;60852;52.190;4.422;2023-04-03T02:26:04;4.76;69.50
68943;DHT22;60852;52.190;4.422;2023-04-03T02:28:30;4.73;69.77
68943;DHT22;60852;52.190;4.422;2023-04-03T02:30:55;4.73;69.75
68943;DHT22;60852;52.190;4.422;2023-04-03T02:33:21;4.68;69.98
68943;DHT22;60852;52.190;4.422;2023-04-03T02:35:46;4.68;70.08
68943;DHT22;60852;52.190;4.422;2023-04-03T02:38:18;4.68;70.12
68943;DHT22;60852;52.190;4.422;2023-04-03T02:40:43;4.64;70.37
68943;DHT22;60852;52.190;4.422;2023-04-03T02:43:09;4.61;70.39
68943;DHT22;60852;52.190;4.422;2023-04-03T02:45:35;4.61;70.42
68943;DHT22;60852;52.190;4.422;2023-04-03T02:48:01;4.64;70.58
68943;DHT22;60852;52.190;4.422;2023-04-03T02:50:26;4.65;70.55
68943;DHT22;60852;52.190;4.422;2023-04-03T02:52:51;4.62;70.68
68943;DHT22;60852;52.190;4.422;2023-04-03T02:55:17;4.56;70.87
68943;DHT22;60852;52.190;4.422;2023-04-03T02:57:42;4.54;70.95
68943;DHT22;60852;52.190;4.422;2023-04-03T03:00:08;4.52;71.11
68943;DHT22;60852;52.190;4.422;2023-04-03T03:02:35;4.49;71.47
68943;DHT22;60852;52.190;4.422;2023-04-03T03:05:00;4.47;71.55
68943;DHT22;60852;52.190;4.422;2023-04-03T03:07:26;4.47;71.65
68943;DHT22;60852;52.190;4.422;2023-04-03T03:09:51;4.45;71.74
68943;DHT22;60852;52.190;4.422;2023-04-03T03:12:16;4.42;71.86
68943;DHT22;60852;52.190;4.422;2023-04-03T03:14:47;4.41;72.14
68943;DHT22;60852;52.190;4.422;2023-04-03T03:17:12;4.40;72.15
68943;DHT22;60852;52.190;4.422;2023-04-03T03:19:38;4.34;72.19
68943;DHT22;60852;52.190;4.422;2023-04-03T03:22:03;4.38;72.39
68943;DHT22;60852;52.190;4.422;2023-04-03T03:24:29;4.31;72.58
68943;DHT22;60852;52.190;4.422;2023-04-03T03:26:54;4.28;72.67
68943;DHT22;60852;52.190;4.422;2023-04-03T03:29:20;4.24;72.87
68943;DHT22;60852;52.190;4.422;2023-04-03T03:31:45;4.25;72.87
68943;DHT22;60852;52.190;4.422;2023-04-03T03:34:11;4.24;73.11
68943;DHT22;60852;52.190;4.422;2023-04-03T03:36:37;4.25;73.07
68943;DHT22;60852;52.190;4.422;2023-04-03T03:39:03;4.28;73.22
68943;DHT22;60852;52.190;4.422;2023-04-03T03:41:28;4.20;73.23
68943;DHT22;60852;52.190;4.422;2023-04-03T03:43:53;4.17;73.47
68943;DHT22;60852;52.190;4.422;2023-04-03T03:46:19;4.17;73.57
68943;DHT22;60852;52.190;4.422;2023-04-03T03:48:45;4.17;73.75
68943;DHT22;60852;52.190;4.422;2023-04-03T03:51:10;4.14;73.74
68943;DHT22;60852;52.190;4.422;2023-04-03T03:53:36;4.14;73.77
68943;DHT22;60852;52.190;4.422;2023-04-03T03:56:01;4.13;73.83
68943;DHT22;60852;52.190;4.422;2023-04-03T03:58:27;4.11;73.95
68943;DHT22;60852;52.190;4.422;2023-04-03T04:00:52;4.10;74.00
68943;DHT22;60852;52.190;4.422;2023-04-03T04:03:18;4.14;74.04
68943;DHT22;60852;52.190;4.422;2023-04-03T04:05:43;4.11;74.15
68943;DHT22;60852;52.190;4.422;2023-04-03T04:08:09;4.08;74.16
68943;DHT22;60852;52.190;4.422;2023-04-03T04:10:37;4.08;74.38
68943;DHT22;60852;52.190;4.422;2023-04-03T04:13:03;4.06;74.44
68943;DHT22;60852;52.190;4.422;2023-04-03T04:15:29;4.03;74.56
68943;DHT22;60852;52.190;4.422;2023-04-03T04:17:54;4.00;74.60
68943;DHT22;60852;52.190;4.422;2023-04-03T04:20:20;3.97;74.80
68943;DHT22;60852;52.190;4.422;2023-04-03T04:22:46;3.96;74.96
68943;DHT22;60852;52.190;4.422;2023-04-03T04:25:11;3.87;75.18
68943;DHT22;60852;52.190;4.422;2023-04-03T04:27:37;3.85;75.44
68943;DHT22;60852;52.190;4.422;2023-04-03T04:30:04;3.86;75.26
68943;DHT22;60852;52.190;4.422;2023-04-03T04:32:30;3.83;75.43
68943;DHT22;60852;52.190;4.422;2023-04-03T04:34:55;3.82;75.55
68943;DHT22;60852;52.190;4.422;2023-04-03T04:37:20;3.82;75.78
68943;DHT22;60852;52.190;4.422;2023-04-03T04:39:46;3.80;75.82
68943;DHT22;60852;52.190;4.422;2023-04-03T04:42:11;3.79;75.86
68943;DHT22;60852;52.190;4.422;2023-04-03T04:44:41;3.76;76.01
68943;DHT22;60852;52.190;4.422;2023-04-03T04:47:06;3.75;76.11
68943;DHT22;60852;52.190;4.422;2023-04-03T04:49:32;3.76;76.26
68943;DHT22;60852;52.190;4.422;2023-04-03T04:51:57;3.77;76.30
68943;DHT22;60852;52.190;4.422;2023-04-03T04:54:22;3.76;76.38
68943;DHT22;60852;52.190;4.422;2023-04-03T04:56:48;3.77;76.37
68943;DHT22;60852;52.190;4.422;2023-04-03T04:59:13;3.80;76.46
68943;DHT22;60852;52.190;4.422;2023-04-03T05:01:39;3.82;76.52
68943;DHT22;60852;52.190;4.422;2023-04-03T05:04:05;3.80;76.48
68943;DHT22;60852;52.190;4.422;2023-04-03T05:06:30;3.77;76.57
68943;DHT22;60852;52.190;4.422;2023-04-03T05:08:57;3.80;76.49
68943;DHT22;60852;52.190;4.422;2023-04-03T05:11:23;3.82;76.70
68943;DHT22;60852;52.190;4.422;2023-04-03T05:13:49;3.82;76.61
68943;DHT22;60852;52.190;4.422;2023-04-03T05:16:14;3.82;76.62
68943;DHT22;60852;52.190;4.422;2023-04-03T05:18:40;3.79;76.64
68943;DHT22;60852;52.190;4.422;2023-04-03T05:21:05;3.79;76.76
68943;DHT22;60852;52.190;4.422;2023-04-03T05:23:31;3.82;76.72
68943;DHT22;60852;52.190;4.422;2023-04-03T05:25:56;3.82;76.76
68943;DHT22;60852;52.190;4.422;2023-04-03T05:28:22;3.77;76.82
68943;DHT22;60852;52.190;4.422;2023-04-03T05:30:57;3.75;76.83
68943;DHT22;60852;52.190;4.422;2023-04-03T05:33:24;3.69;77.04
68943;DHT22;60852;52.190;4.422;2023-04-03T05:35:52;3.63;77.22
68943;DHT22;60852;52.190;4.422;2023-04-03T05:38:17;3.62;77.40
68943;DHT22;60852;52.190;4.422;2023-04-03T05:40:43;3.65;77.38
68943;DHT22;60852;52.190;4.422;2023-04-03T05:43:09;3.63;77.45
68943;DHT22;60852;52.190;4.422;2023-04-03T05:45:34;3.62;77.62
68943;DHT22;60852;52.190;4.422;2023-04-03T05:48:00;3.67;77.58
68943;DHT22;60852;52.190;4.422;2023-04-03T05:50:25;3.75;77.40
68943;DHT22;60852;52.190;4.422;2023-04-03T05:52:55;3.80;77.27
68943;DHT22;60852;52.190;4.422;2023-04-03T05:55:22;3.86;77.00
68943;DHT22;60852;52.190;4.422;2023-04-03T05:57:47;3.82;77.10
68943;DHT22;60852;52.190;4.422;2023-04-03T06:00:14;3.87;77.17
68943;DHT22;60852;52.190;4.422;2023-04-03T06:02:42;3.98;77.10
68943;DHT22;60852;52.190;4.422;2023-04-03T06:05:08;4.01;76.81
68943;DHT22;60852;52.190;4.422;2023-04-03T06:07:34;4.03;76.67
68943;DHT22;60852;52.190;4.422;2023-04-03T06:10:02;4.04;76.66
68943;DHT22;60852;52.190;4.422;2023-04-03T06:12:27;4.07;76.70
68943;DHT22;60852;52.190;4.422;2023-04-03T06:14:55;4.10;76.80
68943;DHT22;60852;52.190;4.422;2023-04-03T06:17:20;4.08;76.78
68943;DHT22;60852;52.190;4.422;2023-04-03T06:19:46;4.14;76.62
68943;DHT22;60852;52.190;4.422;2023-04-03T06:22:11;4.18;76.78
68943;DHT22;60852;52.190;4.422;2023-04-03T06:24:38;4.22;76.57
68943;DHT22;60852;52.190;4.422;2023-04-03T06:27:04;4.24;76.40
68943;DHT22;60852;52.190;4.422;2023-04-03T06:29:30;4.34;76.20
68943;DHT22;60852;52.190;4.422;2023-04-03T06:31:55;4.45;75.81
68943;DHT22;60852;52.190;4.422;2023-04-03T06:34:21;4.54;75.37
68943;DHT22;60852;52.190;4.422;2023-04-03T06:36:46;4.59;74.83
68943;DHT22;60852;52.190;4.422;2023-04-03T06:39:15;4.56;74.67
68943;DHT22;60852;52.190;4.422;2023-04-03T06:41:42;4.72;74.50
68943;DHT22;60852;52.190;4.422;2023-04-03T06:44:07;4.87;74.11
68943;DHT22;60852;52.190;4.422;2023-04-03T06:46:37;4.96;73.51
68943;DHT22;60852;52.190;4.422;2023-04-03T06:49:03;5.05;72.88
68943;DHT22;60852;52.190;4.422;2023-04-03T06:51:30;5.07;72.62
68943;DHT22;60852;52.190;4.422;2023-04-03T06:53:57;5.03;72.40
68943;DHT22;60852;52.190;4.422;2023-04-03T06:56:24;5.16;72.71
68943;DHT22;60852;52.190;4.422;2023-04-03T06:58:52;5.06;72.05
68943;DHT22;60852;52.190;4.422;2023-04-03T07:01:20;4.89;72.73
68943;DHT22;60852;52.190;4.422;2023-04-03T07:03:46;4.82;72.81
68943;DHT22;60852;52.190;4.422;2023-04-03T07:06:15;4.72;73.07
68943;DHT22;60852;52.190;4.422;2023-04-03T07:08:41;4.79;73.43
68943;DHT22;60852;52.190;4.422;2023-04-03T07:11:08;4.76;73.41
68943;DHT22;60852;52.190;4.422;2023-04-03T07:13:35;4.79;72.97
68943;DHT22;60852;52.190;4.422;2023-04-03T07:16:02;4.95;73.23
68943;DHT22;60852;52.190;4.422;2023-04-03T07:18:28;5.07;72.79
68943;DHT22;60852;52.190;4.422;2023-04-03T07:20:54;5.09;72.12
68943;DHT22;60852;52.190;4.422;2023-04-03T07:23:20;5.10;72.19
68943;DHT22;60852;52.190;4.422;2023-04-03T07:25:47;4.97;72.15
68943;DHT22;60852;52.190;4.422;2023-04-03T07:28:14;4.93;71.77
68943;DHT22;60852;52.190;4.422;2023-04-03T07:30:48;5.07;71.87
68943;DHT22;60852;52.190;4.422;2023-04-03T07:33:15;5.16;71.47
68943;DHT22;60852;52.190;4.422;2023-04-03T07:35:43;5.10;71.17
68943;DHT22;60852;52.190;4.422;2023-04-03T07:38:09;5.20;71.01
68943;DHT22;60852;52.190;4.422;2023-04-03T07:40:35;5.23;70.84
68943;DHT22;60852;52.190;4.422;2023-04-03T07:43:01;5.36;71.13
68943;DHT22;60852;52.190;4.422;2023-04-03T07:45:28;5.51;70.27
68943;DHT22;60852;52.190;4.422;2023-04-03T07:47:54;5.62;69.39
68943;DHT22;60852;52.190;4.422;2023-04-03T07:50:19;5.76;69.98
68943;DHT22;60852;52.190;4.422;2023-04-03T07:52:45;5.85;68.41
68943;DHT22;60852;52.190;4.422;2023-04-03T07:55:11;5.79;68.60
68943;DHT22;60852;52.190;4.422;2023-04-03T07:57:37;5.84;68.74
68943;DHT22;60852;52.190;4.422;2023-04-03T08:00:04;5.86;68.32
68943;DHT22;60852;52.190;4.422;2023-04-03T08:02:30;5.99;67.87
68943;DHT22;60852;52.190;4.422;2023-04-03T08:05:00;6.17;67.93
68943;DHT22;60852;52.190;4.422;2023-04-03T08:07:26;6.23;65.40
68943;DHT22;60852;52.190;4.422;2023-04-03T08:09:51;6.29;65.13
68943;DHT22;60852;52.190;4.422;2023-04-03T08:12:17;6.38;65.31
68943;DHT22;60852;52.190;4.422;2023-04-03T08:14:43;6.53;65.01
68943;DHT22;60852;52.190;4.422;2023-04-03T08:17:09;6.63;63.96
68943;DHT22;60852;52.190;4.422;2023-04-03T08:19:40;6.71;63.99
68943;DHT22;60852;52.190;4.422;2023-04-03T08:22:05;6.83;63.73
68943;DHT22;60852;52.190;4.422;2023-04-03T08:24:34;6.91;63.23
68943;DHT22;60852;52.190;4.422;2023-04-03T08:27:00;6.99;62.73
68943;DHT22;60852;52.190;4.422;2023-04-03T08:29:26;7.06;62.55
68943;DHT22;60852;52.190;4.422;2023-04-03T08:31:52;7.12;62.22
68943;DHT22;60852;52.190;4.422;2023-04-03T08:34:18;7.15;61.71
68943;DHT22;60852;52.190;4.422;2023-04-03T08:36:44;7.15;61.90
68943;DHT22;60852;52.190;4.422;2023-04-03T08:39:10;7.20;61.44
68943;DHT22;60852;52.190;4.422;2023-04-03T08:41:39;7.29;59.53
68943;DHT22;60852;52.190;4.422;2023-04-03T08:46:56;7.20;56.64
68943;DHT22;60852;52.190;4.422;2023-04-03T08:49:33;7.01;56.76
68943;DHT22;60852;52.190;4.422;2023-04-03T08:55:27;7.40;59.07
68943;DHT22;60852;52.190;4.422;2023-04-03T08:58:00;7.60;57.33
68943;DHT22;60852;52.190;4.422;2023-04-03T09:00:34;7.67;54.86
68943;DHT22;60852;52.190;4.422;2023-04-03T09:03:02;7.43;53.92
68943;DHT22;60852;52.190;4.422;2023-04-03T09:05:53;7.33;54.55
68943;DHT22;60852;52.190;4.422;2023-04-03T09:08:28;7.42;56.10
68943;DHT22;60852;52.190;4.422;2023-04-03T09:11:24;7.69;55.73
68943;DHT22;60852;52.190;4.422;2023-04-03T09:14:15;7.85;52.57
68943;DHT22;60852;52.190;4.422;2023-04-03T09:22:33;7.73;49.28
68943;DHT22;60852;52.190;4.422;2023-04-03T09:25:31;7.75;48.63
68943;DHT22;60852;52.190;4.422;2023-04-03T09:27:59;7.74;47.54
68943;DHT22;60852;52.190;4.422;2023-04-03T09:30:26;7.80;46.32
68943;DHT22;60852;52.190;4.422;2023-04-03T09:32:55;7.78;46.09
68943;DHT22;60852;52.190;4.422;2023-04-03T09:35:36;7.83;45.78
68943;DHT22;60852;52.190;4.422;2023-04-03T09:38:22;8.05;44.08
68943;DHT22;60852;52.190;4.422;2023-04-03T09:41:26;8.05;46.04
68943;DHT22;60852;52.190;4.422;2023-04-03T09:43:54;8.06;46.02
68943;DHT22;60852;52.190;4.422;2023-04-03T09:46:37;8.01;43.07
68943;DHT22;60852;52.190;4.422;2023-04-03T09:49:05;7.94;44.70
68943;DHT22;60852;52.190;4.422;2023-04-03T09:51:32;8.12;43.77
68943;DHT22;60852;52.190;4.422;2023-04-03T09:53:58;8.11;43.20
68943;DHT22;60852;52.190;4.422;2023-04-03T09:56:28;8.26;42.88
68943;DHT22;60852;52.190;4.422;2023-04-03T10:01:34;8.41;42.70
68943;DHT22;60852;52.190;4.422;2023-04-03T10:06:48;8.55;40.90
68943;DHT22;60852;52.190;4.422;2023-04-03T10:12:12;8.94;41.55
68943;DHT22;60852;52.190;4.422;2023-04-03T10:20:28;8.76;41.10
68943;DHT22;60852;52.190;4.422;2023-04-03T10:23:18;9.27;38.69
68943;DHT22;60852;52.190;4.422;2023-04-03T10:28:48;10.92;36.93
68943;DHT22;60852;52.190;4.422;2023-04-03T10:31:25;11.19;36.07
68943;DHT22;60852;52.190;4.422;2023-04-03T10:34:24;11.09;36.94
68943;DHT22;60852;52.190;4.422;2023-04-03T10:45:29;10.31;35.04
68943;DHT22;60852;52.190;4.422;2023-04-03T10:48:12;10.58;34.29
68943;DHT22;60852;52.190;4.422;2023-04-03T10:50:43;11.44;32.06
68943;DHT22;60852;52.190;4.422;2023-04-03T10:53:32;11.36;33.52
68943;DHT22;60852;52.190;4.422;2023-04-03T10:56:10;11.95;30.89
68943;DHT22;60852;52.190;4.422;2023-04-03T10:58:44;11.50;31.38
68943;DHT22;60852;52.190;4.422;2023-04-03T11:01:18;10.89;31.04
68943;DHT22;60852;52.190;4.422;2023-04-03T11:03:52;10.68;34.24
68943;DHT22;60852;52.190;4.422;2023-04-03T11:06:24;11.16;31.17
68943;DHT22;60852;52.190;4.422;2023-04-03T11:08:57;11.36;29.77
68943;DHT22;60852;52.190;4.422;2023-04-03T11:11:33;11.27;29.86
68943;DHT22;60852;52.190;4.422;2023-04-03T11:14:01;11.19;31.22
68943;DHT22;60852;52.190;4.422;2023-04-03T11:16:31;11.39;31.41
68943;DHT22;60852;52.190;4.422;2023-04-03T11:21:51;11.19;30.16
68943;DHT22;60852;52.190;4.422;2023-04-03T11:24:27;10.92;32.44
68943;DHT22;60852;52.190;4.422;2023-04-03T11:26:56;11.19;32.22
68943;DHT22;60852;52.190;4.422;2023-04-03T11:29:28;11.49;32.05
68943;DHT22;60852;52.190;4.422;2023-04-03T11:32:32;11.13;30.86
68943;DHT22;60852;52.190;4.422;2023-04-03T11:35:06;10.86;28.84
68943;DHT22;60852;52.190;4.422;2023-04-03T11:37:39;10.45;30.56
68943;DHT22;60852;52.190;4.422;2023-04-03T11:40:08;10.42;30.15
68943;DHT22;60852;52.190;4.422;2023-04-03T11:42:47;10.83;30.16
68943;DHT22;60852;52.190;4.422;2023-04-03T11:48:29;10.50;29.32
68943;DHT22;60852;52.190;4.422;2023-04-03T11:50:47;10.31;30.01
68943;DHT22;60852;52.190;4.422;2023-04-03T11:58:17;10.50;29.76
68943;DHT22;60852;52.190;4.422;2023-04-03T12:08:44;10.27;29.61
68943;DHT22;60852;52.190;4.422;2023-04-03T12:21:15;10.16;30.51
68943;DHT22;60852;52.190;4.422;2023-04-03T12:26:40;10.18;30.14
68943;DHT22;60852;52.190;4.422;2023-04-03T12:46:14;10.72;29.69
68943;DHT22;60852;52.190;4.422;2023-04-03T12:48:53;11.08;30.23
68943;DHT22;60852;52.190;4.422;2023-04-03T12:51:41;11.41;28.64
68943;DHT22;60852;52.190;4.422;2023-04-03T12:54:17;11.64;29.92
68943;DHT22;60852;52.190;4.422;2023-04-03T12:56:45;11.51;28.19
68943;DHT22;60852;52.190;4.422;2023-04-03T13:01:58;11.26;29.03
68943;DHT22;60852;52.190;4.422;2023-04-03T13:04:24;11.09;28.67
68943;DHT22;60852;52.190;4.422;2023-04-03T13:06:50;11.15;30.18
68943;DHT22;60852;52.190;4.422;2023-04-03T13:09:28;11.36;29.03
68943;DHT22;60852;52.190;4.422;2023-04-03T13:12:03;11.60;29.66
68943;DHT22;60852;52.190;4.422;2023-04-03T13:14:36;11.80;28.94
68943;DHT22;60852;52.190;4.422;2023-04-03T13:17:15;11.95;28.91
68943;DHT22;60852;52.190;4.422;2023-04-03T13:19:42;12.06;29.77
68943;DHT22;60852;52.190;4.422;2023-04-03T13:22:28;11.87;28.88
68943;DHT22;60852;52.190;4.422;2023-04-03T13:24:59;11.40;29.07
68943;DHT22;60852;52.190;4.422;2023-04-03T13:27:26;10.93;29.71
68943;DHT22;60852;52.190;4.422;2023-04-03T13:29:54;10.88;29.69
68943;DHT22;60852;52.190;4.422;2023-04-03T13:32:26;10.99;30.81
68943;DHT22;60852;52.190;4.422;2023-04-03T13:34:52;10.93;31.88
68943;DHT22;60852;52.190;4.422;2023-04-03T13:37:24;10.71;31.24
68943;DHT22;60852;52.190;4.422;2023-04-03T13:40:16;11.01;30.56
68943;DHT22;60852;52.190;4.422;2023-04-03T13:42:42;10.64;30.47
68943;DHT22;60852;52.190;4.422;2023-04-03T13:45:22;10.47;31.89
68943;DHT22;60852;52.190;4.422;2023-04-03T13:47:51;10.62;31.26
68943;DHT22;60852;52.190;4.422;2023-04-03T13:50:21;10.71;30.04
68943;DHT22;60852;52.190;4.422;2023-04-03T13:52:52;10.42;30.66
68943;DHT22;60852;52.190;4.422;2023-04-03T13:55:24;10.64;32.01
68943;DHT22;60852;52.190;4.422;2023-04-03T13:57:58;11.06;31.15
68943;DHT22;60852;52.190;4.422;2023-04-03T14:02:55;11.16;29.36
68943;DHT22;60852;52.190;4.422;2023-04-03T14:05:22;11.37;31.67
68943;DHT22;60852;52.190;4.422;2023-04-03T14:07:50;11.54;30.73
68943;DHT22;60852;52.190;4.422;2023-04-03T14:10:16;11.70;30.07
68943;DHT22;60852;52.190;4.422;2023-04-03T14:12:41;11.47;31.46
68943;DHT22;60852;52.190;4.422;2023-04-03T14:15:20;11.61;30.78
68943;DHT22;60852;52.190;4.422;2023-04-03T14:17:48;11.68;30.01
68943;DHT22;60852;52.190;4.422;2023-04-03T14:20:18;11.73;31.94
68943;DHT22;60852;52.190;4.422;2023-04-03T14:22:45;11.81;30.59
68943;DHT22;60852;52.190;4.422;2023-04-03T14:25:10;11.31;30.86
68943;DHT22;60852;52.190;4.422;2023-04-03T14:27:39;11.29;30.88
68943;DHT22;60852;52.190;4.422;2023-04-03T14:30:08;11.40;31.55
68943;DHT22;60852;52.190;4.422;2023-04-03T14:32:34;11.16;31.88
68943;DHT22;60852;52.190;4.422;2023-04-03T14:35:00;11.18;32.58
68943;DHT22;60852;52.190;4.422;2023-04-03T14:37:28;10.78;32.50
68943;DHT22;60852;52.190;4.422;2023-04-03T14:39:56;10.61;33.26
68943;DHT22;60852;52.190;4.422;2023-04-03T14:42:31;10.78;33.53
68943;DHT22;60852;52.190;4.422;2023-04-03T14:44:59;10.82;33.25
68943;DHT22;60852;52.190;4.422;2023-04-03T14:47:29;10.73;33.40
68943;DHT22;60852;52.190;4.422;2023-04-03T14:49:55;10.69;33.19
68943;DHT22;60852;52.190;4.422;2023-04-03T14:52:33;10.58;33.54
68943;DHT22;60852;52.190;4.422;2023-04-03T14:55:00;10.72;33.27
68943;DHT22;60852;52.190;4.422;2023-04-03T14:57:28;10.57;33.69
68943;DHT22;60852;52.190;4.422;2023-04-03T14:59:54;10.50;33.63
68943;DHT22;60852;52.190;4.422;2023-04-03T15:02:29;10.64;34.08
68943;DHT22;60852;52.190;4.422;2023-04-03T15:04:56;10.57;32.46
68943;DHT22;60852;52.190;4.422;2023-04-03T15:07:25;10.51;32.33
68943;DHT22;60852;52.190;4.422;2023-04-03T15:09:51;10.71;32.75
68943;DHT22;60852;52.190;4.422;2023-04-03T15:12:17;10.81;33.17
68943;DHT22;60852;52.190;4.422;2023-04-03T15:14:43;10.96;33.51
68943;DHT22;60852;52.190;4.422;2023-04-03T15:17:16;10.92;33.10
68943;DHT22;60852;52.190;4.422;2023-04-03T15:19:41;10.91;34.75
68943;DHT22;60852;52.190;4.422;2023-04-03T15:22:14;10.93;32.02
68943;DHT22;60852;52.190;4.422;2023-04-03T15:24:40;10.60;31.93
68943;DHT22;60852;52.190;4.422;2023-04-03T15:27:05;10.68;31.68
68943;DHT22;60852;52.190;4.422;2023-04-03T15:29:31;10.89;32.31
68943;DHT22;60852;52.190;4.422;2023-04-03T15:31:57;11.08;32.55
68943;DHT22;60852;52.190;4.422;2023-04-03T15:34:22;11.22;33.80
68943;DHT22;60852;52.190;4.422;2023-04-03T15:36:48;11.37;33.13
68943;DHT22;60852;52.190;4.422;2023-04-03T15:39:13;11.30;32.74
68943;DHT22;60852;52.190;4.422;2023-04-03T15:41:39;10.93;33.17
68943;DHT22;60852;52.190;4.422;2023-04-03T15:44:05;10.92;33.68
68943;DHT22;60852;52.190;4.422;2023-04-03T15:46:30;10.86;34.14
68943;DHT22;60852;52.190;4.422;2023-04-03T15:48:57;10.69;34.15
68943;DHT22;60852;52.190;4.422;2023-04-03T15:51:22;10.76;33.89
68943;DHT22;60852;52.190;4.422;2023-04-03T15:53:48;10.75;33.92
68943;DHT22;60852;52.190;4.422;2023-04-03T15:56:13;10.76;34.47
68943;DHT22;60852;52.190;4.422;2023-04-03T15:58:39;10.75;34.87
68943;DHT22;60852;52.190;4.422;2023-04-03T16:01:05;10.71;34.82
68943;DHT22;60852;52.190;4.422;2023-04-03T16:03:31;10.76;36.03
68943;DHT22;60852;52.190;4.422;2023-04-03T16:05:57;10.71;35.17
68943;DHT22;60852;52.190;4.422;2023-04-03T16:08:22;10.83;36.48
68943;DHT22;60852;52.190;4.422;2023-04-03T16:10:48;10.92;35.57
68943;DHT22;60852;52.190;4.422;2023-04-03T16:13:14;10.76;36.02
68943;DHT22;60852;52.190;4.422;2023-04-03T16:15:40;10.72;36.02
68943;DHT22;60852;52.190;4.422;2023-04-03T16:18:07;10.76;36.49
68943;DHT22;60852;52.190;4.422;2023-04-03T16:20:34;10.72;36.63
68943;DHT22;60852;52.190;4.422;2023-04-03T16:23:00;10.89;37.04
68943;DHT22;60852;52.190;4.422;2023-04-03T16:25:26;10.82;36.27
68943;DHT22;60852;52.190;4.422;2023-04-03T16:27:52;10.71;36.36
68943;DHT22;60852;52.190;4.422;2023-04-03T16:30:18;10.75;37.08
68943;DHT22;60852;52.190;4.422;2023-04-03T16:32:43;10.73;37.04
68943;DHT22;60852;52.190;4.422;2023-04-03T16:35:10;10.55;36.57
68943;DHT22;60852;52.190;4.422;2023-04-03T16:37:36;10.60;37.60
68943;DHT22;60852;52.190;4.422;2023-04-03T16:40:03;10.67;37.27
68943;DHT22;60852;52.190;4.422;2023-04-03T16:42:28;10.54;37.62
68943;DHT22;60852;52.190;4.422;2023-04-03T16:44:54;10.47;37.49
68943;DHT22;60852;52.190;4.422;2023-04-03T16:47:19;10.36;37.80
68943;DHT22;60852;52.190;4.422;2023-04-03T16:49:46;10.30;37.44
68943;DHT22;60852;52.190;4.422;2023-04-03T16:52:13;10.27;37.19
68943;DHT22;60852;52.190;4.422;2023-04-03T16:54:39;10.25;37.46
68943;DHT22;60852;52.190;4.422;2023-04-03T16:57:04;10.25;37.82
68943;DHT22;60852;52.190;4.422;2023-04-03T16:59:30;10.24;37.18
68943;DHT22;60852;52.190;4.422;2023-04-03T17:01:55;10.25;37.73
68943;DHT22;60852;52.190;4.422;2023-04-03T17:04:21;10.20;38.03
68943;DHT22;60852;52.190;4.422;2023-04-03T17:06:46;10.21;38.46
68943;DHT22;60852;52.190;4.422;2023-04-03T17:09:12;10.33;38.84
68943;DHT22;60852;52.190;4.422;2023-04-03T17:11:38;10.17;37.80
68943;DHT22;60852;52.190;4.422;2023-04-03T17:14:04;10.13;38.48
68943;DHT22;60852;52.190;4.422;2023-04-03T17:16:33;10.20;38.65
68943;DHT22;60852;52.190;4.422;2023-04-03T17:19:00;10.13;38.76
68943;DHT22;60852;52.190;4.422;2023-04-03T17:21:26;10.06;39.17
68943;DHT22;60852;52.190;4.422;2023-04-03T17:23:59;10.13;39.43
68943;DHT22;60852;52.190;4.422;2023-04-03T17:26:26;10.17;39.61
68943;DHT22;60852;52.190;4.422;2023-04-03T17:28:52;10.04;39.49